createdAt,value
2022-08-30T00:01:31.630Z,17.46
2022-08-30T00:04:00.094Z,17.45
2022-08-30T00:06:30.107Z,17.42
2022-08-30T00:08:57.638Z,17.38
2022-08-30T00:11:28.021Z,17.35
2022-08-30T00:13:56.879Z,17.30
2022-08-30T00:16:26.428Z,17.26
2022-08-30T00:18:54.192Z,17.22
2022-08-30T00:21:21.978Z,17.18
2022-08-30T00:23:48.841Z,17.16
2022-08-30T00:26:15.980Z,17.13
2022-08-30T00:28:42.857Z,17.11
2022-08-30T00:31:10.541Z,17.06
2022-08-30T00:33:42.095Z,17.04
2022-08-30T00:36:08.950Z,17.01
2022-08-30T00:38:35.852Z,16.95
2022-08-30T00:41:03.104Z,16.92
2022-08-30T00:43:36.870Z,16.90
2022-08-30T00:46:10.188Z,16.88
2022-08-30T00:48:47.775Z,16.86
2022-08-30T00:51:17.209Z,16.81
2022-08-30T00:53:49.779Z,16.76
2022-08-30T00:56:19.718Z,16.72
2022-08-30T00:58:54.232Z,16.66
2022-08-30T01:01:22.077Z,16.61
2022-08-30T01:03:50.038Z,16.59
2022-08-30T01:06:17.890Z,16.55
2022-08-30T01:08:47.665Z,16.53
2022-08-30T01:11:21.945Z,16.51
2022-08-30T01:13:53.670Z,16.49
2022-08-30T01:16:22.582Z,16.47
2022-08-30T01:18:54.958Z,16.45
2022-08-30T01:21:42.565Z,16.40
2022-08-30T01:24:10.130Z,16.36
2022-08-30T01:26:37.666Z,16.31
2022-08-30T01:29:11.331Z,16.31
2022-08-30T01:31:38.230Z,16.31
2022-08-30T01:34:07.593Z,16.28
2022-08-30T01:36:44.747Z,16.27
2022-08-30T01:39:15.898Z,16.26
2022-08-30T01:41:43.592Z,16.28
2022-08-30T01:44:13.182Z,16.31
2022-08-30T01:46:46.953Z,16.32
2022-08-30T01:49:18.955Z,16.32
2022-08-30T01:52:01.035Z,16.33
2022-08-30T01:54:38.041Z,16.33
2022-08-30T01:57:13.486Z,16.32
2022-08-30T01:59:47.522Z,16.30
2022-08-30T02:02:26.926Z,16.27
2022-08-30T02:04:55.695Z,16.23
2022-08-30T02:07:24.260Z,16.20
2022-08-30T02:09:53.010Z,16.14
2022-08-30T02:12:20.977Z,16.12
2022-08-30T02:14:47.976Z,16.10
2022-08-30T02:17:16.293Z,16.07
2022-08-30T02:19:43.698Z,16.01
2022-08-30T02:22:11.668Z,15.95
2022-08-30T02:24:38.766Z,15.90
2022-08-30T02:27:06.393Z,15.87
2022-08-30T02:29:33.830Z,15.85
2022-08-30T02:32:00.760Z,15.84
2022-08-30T02:34:27.669Z,15.83
2022-08-30T02:36:54.606Z,15.80
2022-08-30T02:39:21.642Z,15.76
2022-08-30T02:41:48.646Z,15.72
2022-08-30T02:44:16.010Z,15.68
2022-08-30T02:46:42.986Z,15.69
2022-08-30T02:49:32.658Z,15.69
2022-08-30T02:51:57.561Z,15.68
2022-08-30T02:54:24.806Z,15.68
2022-08-30T02:56:51.810Z,15.70
2022-08-30T02:59:19.120Z,15.72
2022-08-30T03:01:46.140Z,15.73
2022-08-30T03:04:13.131Z,15.73
2022-08-30T03:06:40.019Z,15.68
2022-08-30T03:09:06.959Z,15.65
2022-08-30T03:11:34.718Z,15.66
2022-08-30T03:14:01.752Z,15.64
2022-08-30T03:16:28.770Z,15.61
2022-08-30T03:18:55.663Z,15.59
2022-08-30T03:21:22.603Z,15.56
2022-08-30T03:23:49.479Z,15.54
2022-08-30T03:26:16.429Z,15.51
2022-08-30T03:28:44.030Z,15.48
2022-08-30T03:31:12.069Z,15.46
2022-08-30T03:33:40.504Z,15.43
2022-08-30T03:36:09.305Z,15.39
2022-08-30T03:38:36.948Z,15.34
2022-08-30T03:41:05.956Z,15.30
2022-08-30T03:43:35.007Z,15.28
2022-08-30T03:46:02.530Z,15.26
2022-08-30T03:48:29.720Z,15.26
2022-08-30T03:50:57.140Z,15.26
2022-08-30T03:53:27.056Z,15.26
2022-08-30T03:55:55.004Z,15.28
2022-08-30T03:58:24.692Z,15.28
2022-08-30T04:00:51.803Z,15.27
2022-08-30T04:03:18.897Z,15.24
2022-08-30T04:05:45.802Z,15.21
2022-08-30T04:08:12.681Z,15.19
2022-08-30T04:10:39.543Z,15.17
2022-08-30T04:13:06.416Z,15.15
2022-08-30T04:15:33.278Z,15.13
2022-08-30T04:18:00.255Z,15.12
2022-08-30T04:20:27.403Z,15.12
2022-08-30T04:22:54.382Z,15.13
2022-08-30T04:25:21.325Z,15.12
2022-08-30T04:27:49.273Z,15.12
2022-08-30T04:30:17.583Z,15.08
2022-08-30T04:32:48.524Z,15.06
2022-08-30T04:35:15.785Z,15.02
2022-08-30T04:37:42.692Z,15.00
2022-08-30T04:40:11.739Z,14.97
2022-08-30T04:42:38.743Z,14.93
2022-08-30T04:45:10.724Z,14.89
2022-08-30T04:47:39.136Z,14.86
2022-08-30T04:50:09.877Z,14.86
2022-08-30T04:52:37.147Z,14.87
2022-08-30T04:55:07.362Z,14.86
2022-08-30T04:57:34.964Z,14.83
2022-08-30T05:00:02.139Z,14.81
2022-08-30T05:02:29.084Z,14.79
2022-08-30T05:05:14.509Z,14.77
2022-08-30T05:07:41.413Z,14.77
2022-08-30T05:10:11.285Z,14.79
2022-08-30T05:12:39.827Z,14.77
2022-08-30T05:15:07.982Z,14.82
2022-08-30T05:17:36.487Z,14.83
2022-08-30T05:20:05.841Z,14.85
2022-08-30T05:22:32.700Z,14.87
2022-08-30T05:24:59.746Z,14.90
2022-08-30T05:27:26.628Z,14.95
2022-08-30T05:29:53.481Z,14.93
2022-08-30T05:32:20.354Z,14.94
2022-08-30T05:34:47.918Z,14.94
2022-08-30T05:37:18.284Z,14.92
2022-08-30T05:39:51.455Z,14.93
2022-08-30T05:42:19.797Z,14.96
2022-08-30T05:44:50.337Z,14.99
2022-08-30T05:47:17.174Z,15.01
2022-08-30T05:49:44.204Z,15.05
2022-08-30T05:52:12.730Z,15.08
2022-08-30T05:54:39.738Z,15.11
2022-08-30T05:57:06.650Z,15.17
2022-08-30T05:59:33.602Z,15.26
2022-08-30T06:02:00.549Z,15.34
2022-08-30T06:04:27.684Z,15.40
2022-08-30T06:06:54.568Z,15.46
2022-08-30T06:09:21.513Z,15.55
2022-08-30T06:11:48.569Z,15.62
2022-08-30T06:14:15.612Z,15.72
2022-08-30T06:16:45.733Z,15.82
2022-08-30T06:19:14.927Z,15.94
2022-08-30T06:21:44.553Z,16.05
2022-08-30T06:24:12.464Z,16.12
2022-08-30T06:26:44.888Z,16.14
2022-08-30T06:29:16.177Z,16.14
2022-08-30T06:31:43.123Z,16.21
2022-08-30T06:34:10.389Z,16.29
2022-08-30T06:36:38.557Z,16.33
2022-08-30T06:39:06.352Z,16.38
2022-08-30T06:41:36.832Z,16.43
2022-08-30T06:44:10.086Z,16.51
2022-08-30T06:46:39.265Z,16.64
2022-08-30T06:49:07.692Z,16.78
2022-08-30T06:51:39.699Z,16.92
2022-08-30T06:54:10.762Z,17.03
2022-08-30T06:56:48.616Z,17.13
2022-08-30T06:59:25.501Z,17.24
2022-08-30T07:01:54.982Z,17.33
2022-08-30T07:04:21.911Z,17.42
2022-08-30T07:06:48.792Z,17.53
2022-08-30T07:09:15.740Z,17.67
2022-08-30T07:11:42.682Z,17.75
2022-08-30T07:14:09.646Z,17.83
2022-08-30T07:16:37.008Z,17.88
2022-08-30T07:19:05.982Z,17.95
2022-08-30T07:21:45.750Z,18.07
2022-08-30T07:24:13.619Z,18.26
2022-08-30T07:26:49.614Z,18.38
2022-08-30T07:29:17.920Z,18.52
2022-08-30T07:31:45.020Z,18.65
2022-08-30T07:34:12.001Z,18.88
2022-08-30T07:36:40.060Z,19.09
2022-08-30T07:39:07.655Z,19.33
2022-08-30T07:41:38.877Z,19.49
2022-08-30T07:44:09.988Z,19.92
2022-08-30T07:46:40.923Z,20.49
2022-08-30T07:49:11.299Z,21.02
2022-08-30T07:51:40.003Z,21.49
2022-08-30T07:54:07.758Z,21.84
2022-08-30T07:56:35.354Z,22.23
2022-08-30T07:59:02.253Z,22.34
2022-08-30T08:01:29.418Z,22.34
2022-08-30T08:03:56.663Z,22.30
2022-08-30T08:06:24.646Z,22.06
2022-08-30T08:08:54.253Z,21.90
2022-08-30T08:11:30.405Z,21.73
2022-08-30T08:14:00.060Z,21.55
2022-08-30T08:16:29.996Z,21.40
2022-08-30T08:18:57.787Z,21.26
2022-08-30T08:21:27.210Z,21.20
2022-08-30T08:23:54.405Z,21.10
2022-08-30T08:26:22.381Z,20.99
2022-08-30T08:28:49.536Z,20.90
2022-08-30T08:31:27.099Z,20.95
2022-08-30T08:33:56.374Z,21.02
2022-08-30T08:36:23.310Z,21.07
2022-08-30T08:38:50.226Z,21.09
2022-08-30T08:41:35.358Z,21.19
2022-08-30T08:44:18.118Z,21.30
2022-08-30T08:47:02.589Z,21.42
2022-08-30T08:49:30.461Z,21.52
2022-08-30T08:52:16.744Z,21.61
2022-08-30T08:55:02.504Z,21.63
2022-08-30T08:57:36.193Z,21.63
2022-08-30T09:00:11.129Z,21.70
2022-08-30T09:02:57.082Z,21.71
2022-08-30T09:05:29.185Z,21.79
2022-08-30T09:08:10.113Z,21.91
2022-08-30T09:10:50.524Z,22.03
2022-08-30T09:13:22.725Z,22.14
2022-08-30T09:15:54.985Z,22.20
2022-08-30T09:18:51.362Z,22.19
2022-08-30T09:21:27.605Z,22.19
2022-08-30T09:24:04.791Z,22.24
2022-08-30T09:26:38.277Z,22.25
2022-08-30T09:29:17.929Z,22.40
2022-08-30T09:32:10.114Z,22.57
2022-08-30T09:34:43.995Z,22.66
2022-08-30T09:37:28.779Z,22.76
2022-08-30T09:39:58.278Z,22.83
2022-08-30T09:42:30.029Z,22.89
2022-08-30T09:45:10.650Z,22.85
2022-08-30T09:47:43.089Z,22.77
2022-08-30T09:50:21.112Z,22.64
2022-08-30T09:53:15.230Z,22.59
2022-08-30T09:56:20.477Z,22.50
2022-08-30T09:59:32.693Z,22.44
2022-08-30T10:02:20.569Z,22.48
2022-08-30T10:05:00.208Z,22.54
2022-08-30T10:08:02.544Z,22.65
2022-08-30T10:10:30.421Z,22.89
2022-08-30T10:13:17.307Z,22.94
2022-08-30T10:16:03.442Z,22.90
2022-08-30T10:18:43.397Z,22.87
2022-08-30T10:21:19.319Z,22.97
2022-08-30T10:24:02.960Z,23.06
2022-08-30T10:26:43.359Z,23.12
2022-08-30T10:29:30.632Z,23.13
2022-08-30T10:32:23.904Z,23.31
2022-08-30T10:35:20.338Z,23.54
2022-08-30T10:38:18.337Z,23.89
2022-08-30T10:41:13.217Z,24.16
2022-08-30T10:43:58.677Z,24.37
2022-08-30T10:46:40.069Z,24.52
2022-08-30T10:49:19.562Z,24.46
2022-08-30T10:51:58.868Z,24.39
2022-08-30T10:54:58.922Z,24.36
2022-08-30T10:57:26.581Z,24.31
2022-08-30T11:00:07.757Z,24.38
2022-08-30T11:03:14.576Z,24.53
2022-08-30T11:05:48.044Z,24.47
2022-08-30T11:08:39.679Z,24.37
2022-08-30T11:11:40.891Z,24.32
2022-08-30T11:14:14.862Z,24.42
2022-08-30T11:16:46.618Z,24.47
2022-08-30T11:19:32.290Z,24.57
2022-08-30T11:22:24.949Z,24.76
2022-08-30T11:25:57.654Z,24.92
2022-08-30T11:28:37.046Z,25.02
2022-08-30T11:31:24.044Z,25.13
2022-08-30T11:33:57.674Z,25.19
2022-08-30T11:36:28.555Z,25.25
2022-08-30T11:39:50.221Z,25.34
2022-08-30T11:42:34.000Z,25.33
2022-08-30T11:45:25.216Z,25.42
2022-08-30T11:48:01.296Z,25.58
2022-08-30T11:51:05.474Z,25.65
2022-08-30T11:53:55.718Z,25.69
2022-08-30T11:56:48.656Z,25.68
2022-08-30T12:00:12.717Z,25.63
2022-08-30T12:02:59.469Z,25.62
2022-08-30T12:05:39.545Z,25.62
2022-08-30T12:08:31.794Z,25.49
2022-08-30T12:11:26.595Z,25.36
2022-08-30T12:13:55.973Z,25.35
2022-08-30T12:17:01.681Z,25.46
2022-08-30T12:19:32.400Z,25.43
2022-08-30T12:22:06.085Z,25.53
2022-08-30T12:24:43.519Z,25.65
2022-08-30T12:27:33.426Z,25.73
2022-08-30T12:30:08.321Z,25.81
2022-08-30T12:32:46.464Z,25.82
2022-08-30T12:35:28.311Z,25.96
2022-08-30T12:38:02.514Z,26.11
2022-08-30T12:40:31.619Z,26.16
2022-08-30T12:43:05.699Z,26.24
2022-08-30T12:45:50.847Z,26.30
2022-08-30T12:48:20.621Z,26.22
2022-08-30T12:51:01.248Z,26.26
2022-08-30T12:53:41.757Z,26.20
2022-08-30T12:56:21.223Z,26.19
2022-08-30T12:59:02.037Z,26.36
2022-08-30T13:01:31.169Z,26.59
2022-08-30T13:04:22.961Z,26.62
2022-08-30T13:06:57.919Z,26.64
2022-08-30T13:09:34.869Z,26.69
2022-08-30T13:12:06.844Z,26.76
2022-08-30T13:14:43.474Z,26.80
2022-08-30T13:17:19.338Z,26.86
2022-08-30T13:20:24.135Z,26.73
2022-08-30T13:23:24.345Z,26.70
2022-08-30T13:25:51.350Z,26.93
2022-08-30T13:28:18.391Z,27.14
2022-08-30T13:30:45.358Z,27.39
2022-08-30T13:33:12.319Z,27.58
2022-08-30T13:35:39.297Z,27.76
2022-08-30T13:38:06.292Z,27.84
2022-08-30T13:40:33.443Z,27.97
2022-08-30T13:43:01.201Z,28.23
2022-08-30T13:45:43.622Z,28.40
2022-08-30T13:48:12.929Z,28.69
2022-08-30T13:50:40.262Z,28.84
2022-08-30T13:53:09.216Z,28.92
2022-08-30T13:55:39.949Z,28.89
2022-08-30T13:58:07.880Z,28.96
2022-08-30T14:00:38.062Z,29.06
2022-08-30T14:03:05.513Z,29.09
2022-08-30T14:06:15.497Z,29.08
2022-08-30T14:08:48.081Z,29.01
2022-08-30T14:11:20.996Z,28.71
2022-08-30T14:16:42.351Z,28.46
2022-08-30T14:19:12.289Z,28.62
2022-08-30T14:21:39.537Z,28.76
2022-08-30T14:24:06.654Z,28.66
2022-08-30T14:26:48.443Z,28.59
2022-08-30T14:29:23.749Z,28.54
2022-08-30T14:31:52.339Z,28.55
2022-08-30T14:34:19.798Z,28.40
2022-08-30T14:36:47.463Z,28.28
2022-08-30T14:39:19.072Z,28.11
2022-08-30T14:41:51.584Z,27.93
2022-08-30T14:44:21.683Z,27.97
2022-08-30T14:46:49.574Z,28.08
2022-08-30T14:49:20.113Z,28.21
2022-08-30T14:51:48.477Z,28.42
2022-08-30T14:54:19.757Z,28.45
2022-08-30T14:56:47.686Z,28.34
2022-08-30T14:59:15.328Z,28.15
2022-08-30T15:01:44.888Z,28.11
2022-08-30T15:04:14.689Z,27.78
2022-08-30T15:06:45.819Z,27.52
2022-08-30T15:09:16.597Z,27.42
2022-08-30T15:11:44.508Z,27.37
2022-08-30T15:14:16.219Z,27.13
2022-08-30T15:16:43.980Z,27.05
2022-08-30T15:19:11.810Z,27.01
2022-08-30T15:21:46.176Z,26.84
2022-08-30T15:24:18.237Z,26.64
2022-08-30T15:26:45.883Z,26.33
2022-08-30T15:29:18.681Z,26.09
2022-08-30T15:31:49.881Z,25.95
2022-08-30T15:34:21.878Z,25.89
2022-08-30T15:36:56.192Z,25.75
2022-08-30T15:39:24.371Z,25.63
2022-08-30T15:41:55.935Z,25.54
2022-08-30T15:44:25.795Z,25.43
2022-08-30T15:46:52.756Z,25.34
2022-08-30T15:49:22.759Z,25.22
2022-08-30T15:51:54.449Z,25.16
2022-08-30T15:54:24.030Z,25.09
2022-08-30T15:56:59.048Z,25.07
2022-08-30T15:59:29.755Z,24.97
2022-08-30T16:01:58.239Z,24.88
2022-08-30T16:04:25.557Z,24.75
2022-08-30T16:06:53.351Z,24.71
2022-08-30T16:09:21.820Z,24.77
2022-08-30T16:11:49.279Z,24.83
2022-08-30T16:14:16.329Z,25.00
2022-08-30T16:16:43.491Z,25.15
2022-08-30T16:19:10.614Z,25.27
2022-08-30T16:21:39.539Z,25.41
2022-08-30T16:24:10.585Z,25.51
2022-08-30T16:26:42.277Z,25.55
2022-08-30T16:29:11.128Z,25.47
2022-08-30T16:31:38.380Z,25.28
2022-08-30T16:34:06.861Z,25.17
2022-08-30T16:36:35.933Z,25.05
2022-08-30T16:39:08.246Z,24.97
2022-08-30T16:41:37.161Z,25.00
2022-08-30T16:44:06.401Z,24.92
2022-08-30T16:46:34.800Z,24.83
2022-08-30T16:49:03.245Z,24.75
2022-08-30T16:51:33.667Z,24.68
2022-08-30T16:54:07.718Z,24.58
2022-08-30T16:56:36.920Z,24.55
2022-08-30T16:59:10.967Z,24.55
2022-08-30T17:01:39.367Z,24.58
2022-08-30T17:04:08.212Z,24.62
2022-08-30T17:06:36.499Z,24.61
2022-08-30T17:09:06.391Z,24.55
2022-08-30T17:11:36.375Z,24.47
2022-08-30T17:14:04.078Z,24.39
2022-08-30T17:16:31.880Z,24.32
2022-08-30T17:19:01.185Z,24.25
2022-08-30T17:21:30.014Z,24.17
2022-08-30T17:24:02.945Z,24.15
2022-08-30T17:26:36.580Z,24.16
2022-08-30T17:29:05.111Z,24.14
2022-08-30T17:31:32.598Z,24.12
2022-08-30T17:34:04.018Z,24.06
2022-08-30T17:36:36.833Z,23.98
2022-08-30T17:41:55.954Z,23.77
2022-08-30T17:44:28.935Z,23.73
2022-08-30T17:46:58.155Z,23.68
2022-08-30T17:49:28.733Z,23.62
2022-08-30T17:51:57.588Z,23.57
2022-08-30T17:54:28.047Z,23.55
2022-08-30T17:56:56.417Z,23.51
2022-08-30T17:59:25.717Z,23.48
2022-08-30T18:01:55.065Z,23.39
2022-08-30T18:04:24.716Z,23.32
2022-08-30T18:06:52.704Z,23.22
2022-08-30T18:09:19.660Z,23.15
2022-08-30T18:11:48.219Z,23.08
2022-08-30T18:14:16.547Z,23.02
2022-08-30T18:16:53.143Z,22.95
2022-08-30T18:19:27.201Z,22.86
2022-08-30T18:21:55.262Z,22.80
2022-08-30T18:24:24.429Z,22.75
2022-08-30T18:26:54.631Z,22.67
2022-08-30T18:29:26.130Z,22.59
2022-08-30T18:31:56.256Z,22.50
2022-08-30T18:34:23.256Z,22.40
2022-08-30T18:36:50.258Z,22.33
2022-08-30T18:39:17.148Z,22.27
2022-08-30T18:41:44.175Z,22.20
2022-08-30T18:44:27.233Z,22.15
2022-08-30T18:46:56.251Z,22.08
2022-08-30T18:49:25.737Z,22.04
2022-08-30T18:51:53.689Z,21.98
2022-08-30T18:54:20.802Z,21.94
2022-08-30T18:56:47.993Z,21.87
2022-08-30T18:59:16.130Z,21.83
2022-08-30T19:01:43.056Z,21.77
2022-08-30T19:04:11.356Z,21.69
2022-08-30T19:06:51.130Z,21.64
2022-08-30T19:09:17.987Z,21.57
2022-08-30T19:11:45.212Z,21.48
2022-08-30T19:14:12.477Z,21.42
2022-08-30T19:16:40.837Z,21.37
2022-08-30T19:19:10.156Z,21.30
2022-08-30T19:21:40.246Z,21.23
2022-08-30T19:24:08.512Z,21.19
2022-08-30T19:26:37.309Z,21.14
2022-08-30T19:29:06.097Z,21.08
2022-08-30T19:31:33.731Z,21.01
2022-08-30T19:34:00.787Z,20.93
2022-08-30T19:36:28.867Z,20.88
2022-08-30T19:38:56.072Z,20.84
2022-08-30T19:41:23.571Z,20.79
2022-08-30T19:43:51.540Z,20.72
2022-08-30T19:46:18.555Z,20.68
2022-08-30T19:48:45.556Z,20.61
2022-08-30T19:51:14.611Z,20.56
2022-08-30T19:53:42.835Z,20.51
2022-08-30T19:56:09.916Z,20.46
2022-08-30T19:58:37.005Z,20.41
2022-08-30T20:01:11.781Z,20.34
2022-08-30T20:03:40.361Z,20.29
2022-08-30T20:06:08.883Z,20.23
2022-08-30T20:08:37.213Z,20.20
2022-08-30T20:11:05.403Z,20.15
2022-08-30T20:13:34.279Z,20.11
2022-08-30T20:16:01.681Z,20.07
2022-08-30T20:18:29.382Z,20.05
2022-08-30T20:20:57.185Z,19.99
2022-08-30T20:23:25.602Z,19.97
2022-08-30T20:24:23.824Z,23.87
2022-08-30T20:25:55.471Z,19.93
2022-08-30T20:28:25.079Z,19.88
2022-08-30T20:30:54.212Z,19.84
2022-08-30T20:33:23.578Z,19.81
2022-08-30T20:35:52.216Z,19.78
2022-08-30T20:38:21.367Z,19.70
2022-08-30T20:40:52.678Z,19.67
2022-08-30T20:43:23.582Z,19.60
2022-08-30T20:45:51.361Z,19.55
2022-08-30T20:48:19.530Z,19.50
2022-08-30T20:50:46.635Z,19.47
2022-08-30T20:53:14.661Z,19.44
2022-08-30T20:55:47.391Z,19.40
2022-08-30T20:58:15.144Z,19.34
2022-08-30T21:00:45.863Z,19.32
2022-08-30T21:03:26.249Z,19.29
2022-08-30T21:05:56.657Z,19.24
2022-08-30T21:08:23.703Z,19.19
2022-08-30T21:10:50.637Z,19.15
2022-08-30T21:13:17.616Z,19.13
2022-08-30T21:15:46.175Z,19.08
2022-08-30T21:18:14.926Z,19.05
2022-08-30T21:20:42.241Z,19.00
2022-08-30T21:23:09.921Z,18.97
2022-08-30T21:25:42.428Z,18.92
2022-08-30T21:28:10.146Z,18.87
2022-08-30T21:30:37.881Z,18.81
2022-08-30T21:33:07.203Z,18.75
2022-08-30T21:35:53.052Z,18.71
2022-08-30T21:38:20.599Z,18.67
2022-08-30T21:40:48.814Z,18.66
2022-08-30T21:43:16.162Z,18.63
2022-08-30T21:45:45.018Z,18.58
2022-08-30T21:48:13.797Z,18.53
2022-08-30T21:50:43.011Z,18.48
2022-08-30T21:53:10.617Z,18.44
2022-08-30T21:55:37.791Z,18.42
2022-08-30T21:58:04.684Z,18.41
2022-08-30T22:00:33.564Z,18.39
2022-08-30T22:03:00.767Z,18.38
2022-08-30T22:05:28.066Z,18.35
2022-08-30T22:07:54.954Z,18.33
2022-08-30T22:10:22.131Z,18.31
2022-08-30T22:12:49.293Z,18.32
2022-08-30T22:15:16.672Z,18.33
2022-08-30T22:17:43.917Z,18.34
2022-08-30T22:20:11.986Z,18.35
2022-08-30T22:22:45.306Z,18.38
2022-08-30T22:25:12.399Z,18.41
2022-08-30T22:27:39.295Z,18.44
2022-08-30T22:30:07.000Z,18.46
2022-08-30T22:32:33.939Z,18.51
2022-08-30T22:35:01.388Z,18.51
2022-08-30T22:37:29.169Z,18.53
2022-08-30T22:39:56.102Z,18.53
2022-08-30T22:42:23.078Z,18.56
2022-08-30T22:44:50.522Z,18.57
2022-08-30T22:47:17.390Z,18.58
2022-08-30T22:49:44.461Z,18.59
2022-08-30T22:52:12.728Z,18.60
2022-08-30T22:54:40.038Z,18.61
2022-08-30T22:57:06.879Z,18.64
2022-08-30T22:59:33.910Z,18.63
2022-08-30T23:02:00.857Z,18.65
2022-08-30T23:04:27.922Z,18.64
2022-08-30T23:06:54.738Z,18.61
2022-08-30T23:09:21.584Z,18.59
2022-08-30T23:11:48.514Z,18.56
2022-08-30T23:14:15.561Z,18.54
2022-08-30T23:16:42.617Z,18.51
2022-08-30T23:19:09.646Z,18.51
2022-08-30T23:21:36.607Z,18.47
2022-08-30T23:24:22.709Z,18.46
2022-08-30T23:27:07.946Z,18.43
2022-08-30T23:29:54.168Z,18.40
2022-08-30T23:32:40.626Z,18.36
2022-08-30T23:35:30.977Z,18.32
2022-08-30T23:38:20.723Z,18.29
2022-08-30T23:41:06.055Z,18.23
2022-08-30T23:43:51.330Z,18.17
2022-08-30T23:46:40.543Z,18.12
2022-08-30T23:49:25.783Z,18.09
2022-08-30T23:52:11.517Z,18.06
2022-08-30T23:54:57.374Z,18.00
2022-08-30T23:57:44.991Z,17.94
